Terminal Aerodrome Forecast
Issued by NWS Twin Cities, MN

Home | Current Version | Previous Version | Graphics & Text | Print | Product List | Glossary On
Versions: 1 2 3 4 5 6 7 8 9 10 11 12 13 14 15 16
313
FTUS43 KMPX 270520
TAFEAU
TAF
KEAU 270520Z 2706/2806 23004KT P6SM FEW150 SCT250
     FM271900 VRB03KT 5SM -TSRA BR OVC035CB
     FM280200 05003KT P6SM SCT015 OVC030=

USA.gov is the U.S. government's official web portal to all federal, state and local government web resources and services.